Wetterdaten: Woche 15.09.14 - 21.09.14 (KW38)
Datum Zeit Temp. A. Feuchte A. Luftdruck Regen Wind Richtung Sonnenschein ET UV Solar Taupunkt Windchill Windben
15.09.2014 00:00 14,2 C 95 % 1016,9 hPa 0,0 l/m 0,2 km/h (0 Bft) N-NO 0,00 h 0,000 mm 0,0 UV-I 0 W/m 13,4 C 14,2 C 1,1 km/h (0 Bft)
15.09.2014 01:00 14,0 C 95 % 1016,8 hPa 0,0 l/m 0,1 km/h (0 Bft) NO 0,00 h 0,000 mm 0,0 UV-I 0 W/m 13,2 C 14,0 C 0,7 km/h (0 Bft)
15.09.2014 02:00 13,8 C 96 % 1016,7 hPa 0,0 l/m 0,2 km/h (0 Bft) NO 0,00 h 0,000 mm 0,0 UV-I 0 W/m 13,1 C 13,8 C 1,3 km/h (1 Bft)
15.09.2014 03:00 13,7 C 96 % 1016,7 hPa 0,0 l/m 1,8 km/h (1 Bft) N 0,00 h 0,000 mm 0,0 UV-I 0 W/m 13,1 C 13,7 C 3,4 km/h (1 Bft)
15.09.2014 04:00 13,7 C 96 % 1016,6 hPa 0,0 l/m 0,1 km/h (0 Bft) N-NO 0,00 h 0,000 mm 0,0 UV-I 0 W/m 13,1 C 13,7 C 0,1 km/h (0 Bft)
15.09.2014 05:00 13,8 C 97 % 1016,5 hPa 0,0 l/m 0,3 km/h (0 Bft) N 0,00 h 0,000 mm 0,0 UV-I 0 W/m 13,3 C 13,8 C 0,8 km/h (0 Bft)
15.09.2014 06:00 13,9 C 97 % 1016,7 hPa 0,0 l/m 0,7 km/h (0 Bft) N 0,00 h 0,000 mm 0,0 UV-I 5 W/m 13,5 C 13,9 C 1,8 km/h (1 Bft)
15.09.2014 07:00 14,0 C 97 % 1016,9 hPa 0,0 l/m 0,0 km/h (0 Bft) N 0,00 h 0,000 mm 0,0 UV-I 10 W/m 13,6 C 14,0 C 0,1 km/h (0 Bft)
15.09.2014 08:00 14,3 C 97 % 1017,2 hPa 0,0 l/m 0,1 km/h (0 Bft) O 0,02 h 0,000 mm 0,0 UV-I 24 W/m 13,8 C 14,3 C 0,1 km/h (0 Bft)
15.09.2014 09:00 15,4 C 94 % 1017,3 hPa 0,0 l/m 1,2 km/h (1 Bft) O-NO 1,00 h 0,025 mm 0,7 UV-I 99 W/m 14,3 C 15,4 C 3,0 km/h (1 Bft)
15.09.2014 10:00 16,6 C 86 % 1017,4 hPa 0,0 l/m 1,7 km/h (1 Bft) O-SO 1,00 h 0,051 mm 1,3 UV-I 180 W/m 14,2 C 16,6 C 3,9 km/h (1 Bft)
15.09.2014 11:00 17,7 C 81 % 1017,4 hPa 0,0 l/m 4,1 km/h (1 Bft) SO 1,00 h 0,102 mm 2,1 UV-I 265 W/m 14,4 C 17,5 C 8,2 km/h (2 Bft)
15.09.2014 12:00 18,4 C 77 % 1017,3 hPa 0,0 l/m 6,9 km/h (2 Bft) SO 1,00 h 0,152 mm 3,3 UV-I 378 W/m 14,2 C 17,9 C 11,0 km/h (2 Bft)
15.09.2014 13:00 18,9 C 75 % 1017,2 hPa 0,0 l/m 5,0 km/h (1 Bft) SO 1,00 h 0,229 mm 2,7 UV-I 262 W/m 14,3 C 18,6 C 8,6 km/h (2 Bft)
15.09.2014 14:00 20,0 C 70 % 1017,0 hPa 0,0 l/m 9,9 km/h (2 Bft) SO 1,00 h 0,178 mm 3,6 UV-I 575 W/m 14,5 C 18,7 C 16,0 km/h (3 Bft)
15.09.2014 15:00 20,5 C 68 % 1016,5 hPa 0,0 l/m 8,7 km/h (2 Bft) SO 1,00 h 0,356 mm 2,7 UV-I 451 W/m 14,3 C 19,5 C 13,3 km/h (3 Bft)
15.09.2014 16:00 21,0 C 66 % 1016,1 hPa 0,0 l/m 3,7 km/h (1 Bft) O-SO 1,00 h 0,305 mm 1,6 UV-I 368 W/m 14,3 C 21,0 C 7,7 km/h (2 Bft)
15.09.2014 17:00 20,1 C 68 % 1015,9 hPa 0,0 l/m 3,6 km/h (1 Bft) SO 1,00 h 0,229 mm 0,7 UV-I 152 W/m 13,9 C 20,0 C 6,9 km/h (2 Bft)
15.09.2014 18:00 19,7 C 70 % 1015,9 hPa 0,0 l/m 2,8 km/h (1 Bft) SO 0,65 h 0,102 mm 0,0 UV-I 70 W/m 14,1 C 19,7 C 5,6 km/h (1 Bft)
15.09.2014 19:00 17,8 C 81 % 1016,1 hPa 0,0 l/m 0,1 km/h (0 Bft) O-SO 0,00 h 0,051 mm 0,0 UV-I 8 W/m 14,4 C 17,8 C 0,7 km/h (0 Bft)
15.09.2014 20:00 16,7 C 85 % 1016,3 hPa 0,0 l/m 0,1 km/h (0 Bft) O-NO 0,00 h 0,000 mm 0,0 UV-I 0 W/m 14,1 C 16,7 C 0,7 km/h (0 Bft)
15.09.2014 21:00 15,4 C 88 % 1016,5 hPa 0,0 l/m 0,1 km/h (0 Bft) O-NO 0,00 h 0,025 mm 0,0 UV-I 0 W/m 13,4 C 15,4 C 0,8 km/h (0 Bft)
15.09.2014 22:00 14,3 C 92 % 1016,6 hPa 0,0 l/m 1,5 km/h (1 Bft) O-NO 0,00 h 0,000 mm 0,0 UV-I 0 W/m 13,0 C 14,3 C 3,7 km/h (1 Bft)
15.09.2014 23:00 13,9 C 94 % 1016,7 hPa 0,0 l/m 3,4 km/h (1 Bft) O-NO 0,00 h 0,000 mm 0,0 UV-I 0 W/m 12,9 C 13,9 C 6,4 km/h (2 Bft)
16.09.2014 00:00 13,5 C 93 % 1016,6 hPa 0,0 l/m 0,0 km/h (0 Bft) O-NO 0,00 h 0,000 mm 0,0 UV-I 0 W/m 12,3 C 13,5 C 0,2 km/h (0 Bft)
16.09.2014 01:00 13,0 C 94 % 1016,5 hPa 0,0 l/m 1,0 km/h (0 Bft) O-NO 0,00 h 0,000 mm 0,0 UV-I 0 W/m 12,1 C 13,0 C 2,6 km/h (1 Bft)
16.09.2014 02:00 13,3 C 96 % 1016,5 hPa 0,0 l/m 0,1 km/h (0 Bft) N 0,00 h 0,000 mm 0,0 UV-I 0 W/m 12,7 C 13,3 C 0,7 km/h (0 Bft)
16.09.2014 03:00 13,5 C 96 % 1016,2 hPa 0,0 l/m 0,8 km/h (0 Bft) O 0,00 h 0,000 mm 0,0 UV-I 0 W/m 12,8 C 13,5 C 2,5 km/h (1 Bft)
16.09.2014 04:00 14,0 C 97 % 1016,2 hPa 0,0 l/m 2,2 km/h (1 Bft) O 0,00 h 0,000 mm 0,0 UV-I 0 W/m 13,4 C 14,0 C 4,9 km/h (1 Bft)
16.09.2014 05:00 14,2 C 95 % 1016,1 hPa 0,0 l/m 1,3 km/h (1 Bft) O 0,00 h 0,000 mm 0,0 UV-I 0 W/m 13,4 C 14,2 C 3,4 km/h (1 Bft)
16.09.2014 06:00 14,1 C 94 % 1016,3 hPa 0,0 l/m 2,8 km/h (1 Bft) SO 0,00 h 0,000 mm 0,0 UV-I 0 W/m 13,2 C 14,1 C 5,6 km/h (1 Bft)
16.09.2014 07:00 14,7 C 93 % 1016,6 hPa 0,0 l/m 4,7 km/h (1 Bft) SO 0,28 h 0,000 mm 0,0 UV-I 36 W/m 13,6 C 14,4 C 9,5 km/h (2 Bft)
16.09.2014 08:00 15,7 C 88 % 1016,7 hPa 0,0 l/m 6,8 km/h (2 Bft) SO 1,00 h 0,025 mm 0,7 UV-I 147 W/m 13,8 C 15,0 C 12,2 km/h (2 Bft)
16.09.2014 09:00 17,1 C 81 % 1016,8 hPa 0,0 l/m 6,6 km/h (2 Bft) O-SO 1,00 h 0,076 mm 1,4 UV-I 346 W/m 13,8 C 16,5 C 12,7 km/h (3 Bft)
16.09.2014 10:00 18,1 C 76 % 1016,9 hPa 0,0 l/m 9,7 km/h (2 Bft) SO 1,00 h 0,203 mm 2,5 UV-I 504 W/m 13,9 C 16,8 C 15,5 km/h (3 Bft)
16.09.2014 11:00 18,9 C 73 % 1016,9 hPa 0,0 l/m 8,2 km/h (2 Bft) SO 1,00 h 0,306 mm 3,2 UV-I 523 W/m 14,0 C 18,0 C 14,4 km/h (3 Bft)
16.09.2014 12:00 20,1 C 68 % 1016,6 hPa 0,0 l/m 8,5 km/h (2 Bft) SO 1,00 h 0,330 mm 4,1 UV-I 644 W/m 14,1 C 19,1 C 14,5 km/h (3 Bft)
16.09.2014 13:00 21,1 C 63 % 1016,1 hPa 0,0 l/m 8,7 km/h (2 Bft) SO 1,00 h 0,406 mm 4,1 UV-I 634 W/m 13,7 C 20,2 C 15,0 km/h (3 Bft)
16.09.2014 14:00 21,2 C 62 % 1015,7 hPa 0,0 l/m 8,9 km/h (2 Bft) SO 1,00 h 0,406 mm 3,2 UV-I 496 W/m 13,6 C 20,2 C 15,1 km/h (3 Bft)
16.09.2014 15:00 21,5 C 60 % 1015,4 hPa 0,0 l/m 9,7 km/h (2 Bft) SO 1,00 h 0,330 mm 2,5 UV-I 480 W/m 13,3 C 20,4 C 17,0 km/h (3 Bft)
16.09.2014 16:00 21,3 C 59 % 1015,3 hPa 0,0 l/m 10,1 km/h (2 Bft) SO 1,00 h 0,330 mm 1,6 UV-I 379 W/m 13,0 C 20,1 C 16,8 km/h (3 Bft)
16.09.2014 17:00 20,6 C 62 % 1015,2 hPa 0,0 l/m 6,5 km/h (2 Bft) SO 1,00 h 0,279 mm 0,7 UV-I 191 W/m 13,1 C 20,2 C 12,0 km/h (2 Bft)
16.09.2014 18:00 19,0 C 68 % 1015,2 hPa 0,0 l/m 4,7 km/h (1 Bft) O 0,50 h 0,152 mm 0,0 UV-I 51 W/m 12,9 C 18,9 C 9,5 km/h (2 Bft)
16.09.2014 19:00 17,5 C 74 % 1015,1 hPa 0,0 l/m 3,8 km/h (1 Bft) O 0,00 h 0,051 mm 0,0 UV-I 9 W/m 12,8 C 17,5 C 7,6 km/h (2 Bft)
16.09.2014 20:00 16,5 C 78 % 1015,5 hPa 0,0 l/m 1,8 km/h (1 Bft) O-NO 0,00 h 0,025 mm 0,0 UV-I 0 W/m 12,6 C 16,5 C 4,8 km/h (1 Bft)
16.09.2014 21:00 15,9 C 81 % 1015,7 hPa 0,0 l/m 1,8 km/h (1 Bft) O-NO 0,00 h 0,025 mm 0,0 UV-I 0 W/m 12,7 C 15,9 C 4,4 km/h (1 Bft)
16.09.2014 22:00 16,1 C 80 % 1015,7 hPa 0,0 l/m 4,1 km/h (1 Bft) O-SO 0,00 h 0,028 mm 0,0 UV-I 0 W/m 12,7 C 15,9 C 7,9 km/h (2 Bft)
16.09.2014 23:00 16,0 C 79 % 1015,7 hPa 0,0 l/m 5,9 km/h (2 Bft) SO 0,00 h 0,025 mm 0,0 UV-I 0 W/m 12,3 C 15,7 C 10,2 km/h (2 Bft)
17.09.2014 00:00 15,2 C 81 % 1015,3 hPa 0,0 l/m 4,3 km/h (1 Bft) SO 0,00 h 0,025 mm 0,0 UV-I 0 W/m 11,9 C 15,2 C 8,5 km/h (2 Bft)
17.09.2014 01:00 14,4 C 84 % 1015,2 hPa 0,0 l/m 2,0 km/h (1 Bft) SO 0,00 h 0,025 mm 0,0 UV-I 0 W/m 11,8 C 14,4 C 4,9 km/h (1 Bft)
17.09.2014 02:00 13,8 C 87 % 1015,0 hPa 0,0 l/m 2,2 km/h (1 Bft) O-NO 0,00 h 0,025 mm 0,0 UV-I 0 W/m 11,7 C 13,8 C 4,9 km/h (1 Bft)
17.09.2014 03:00 13,3 C 90 % 1014,9 hPa 0,0 l/m 1,3 km/h (1 Bft) SO 0,00 h 0,025 mm 0,0 UV-I 0 W/m 11,7 C 13,3 C 3,6 km/h (1 Bft)
17.09.2014 04:00 13,3 C 91 % 1014,8 hPa 0,0 l/m 2,9 km/h (1 Bft) O 0,00 h 0,000 mm 0,0 UV-I 0 W/m 11,9 C 13,3 C 6,6 km/h (2 Bft)
17.09.2014 05:00 13,5 C 91 % 1014,5 hPa 0,0 l/m 4,6 km/h (1 Bft) O 0,00 h 0,000 mm 0,0 UV-I 0 W/m 12,0 C 13,2 C 10,3 km/h (2 Bft)
17.09.2014 06:00 13,5 C 90 % 1014,5 hPa 0,0 l/m 5,4 km/h (1 Bft) O 0,00 h 0,000 mm 0,0 UV-I 0 W/m 11,9 C 13,2 C 10,5 km/h (2 Bft)
17.09.2014 07:00 13,6 C 89 % 1014,8 hPa 0,0 l/m 5,6 km/h (1 Bft) O 0,00 h 0,000 mm 0,0 UV-I 18 W/m 11,8 C 13,2 C 10,0 km/h (2 Bft)
17.09.2014 08:00 13,9 C 88 % 1015,0 hPa 0,0 l/m 3,5 km/h (1 Bft) SO 0,63 h 0,025 mm 0,0 UV-I 58 W/m 11,9 C 13,8 C 6,7 km/h (2 Bft)
17.09.2014 09:00 14,6 C 85 % 1014,9 hPa 0,0 l/m 4,8 km/h (1 Bft) SO 1,00 h 0,025 mm 0,8 UV-I 139 W/m 12,2 C 14,4 C 8,9 km/h (2 Bft)
17.09.2014 10:00 16,0 C 81 % 1014,8 hPa 0,0 l/m 6,3 km/h (2 Bft) SO 1,00 h 0,076 mm 1,9 UV-I 311 W/m 12,7 C 15,5 C 11,4 km/h (2 Bft)
17.09.2014 11:00 17,3 C 77 % 1014,6 hPa 0,0 l/m 6,8 km/h (2 Bft) O-SO 1,00 h 0,178 mm 3,5 UV-I 577 W/m 13,1 C 16,7 C 12,4 km/h (3 Bft)
17.09.2014 12:00 18,2 C 73 % 1014,5 hPa 0,0 l/m 8,7 km/h (2 Bft) SO 1,00 h 0,330 mm 4,1 UV-I 681 W/m 13,2 C 17,1 C 14,5 km/h (3 Bft)
17.09.2014 13:00 19,4 C 69 % 1014,2 hPa 0,0 l/m 8,2 km/h (2 Bft) SO 1,00 h 0,406 mm 4,1 UV-I 660 W/m 13,6 C 18,6 C 13,3 km/h (3 Bft)
17.09.2014 14:00 20,6 C 66 % 1013,7 hPa 0,0 l/m 7,3 km/h (2 Bft) SO 1,00 h 0,406 mm 3,4 UV-I 613 W/m 14,0 C 20,1 C 12,4 km/h (3 Bft)
17.09.2014 15:00 21,4 C 63 % 1013,3 hPa 0,0 l/m 6,7 km/h (2 Bft) SO 1,00 h 0,381 mm 2,6 UV-I 515 W/m 14,0 C 20,9 C 11,5 km/h (2 Bft)
17.09.2014 16:00 21,4 C 60 % 1013,1 hPa 0,0 l/m 7,8 km/h (2 Bft) SO 0,98 h 0,356 mm 1,5 UV-I 370 W/m 13,3 C 20,8 C 13,5 km/h (3 Bft)
17.09.2014 17:00 21,0 C 61 % 1013,0 hPa 0,0 l/m 6,7 km/h (2 Bft) SO 0,98 h 0,254 mm 0,7 UV-I 156 W/m 13,3 C 20,5 C 12,0 km/h (2 Bft)
17.09.2014 18:00 20,1 C 65 % 1012,9 hPa 0,0 l/m 2,0 km/h (1 Bft) SO 0,47 h 0,127 mm 0,0 UV-I 51 W/m 13,2 C 20,1 C 4,9 km/h (1 Bft)
17.09.2014 19:00 18,1 C 71 % 1012,9 hPa 0,0 l/m 1,3 km/h (1 Bft) O-NO 0,00 h 0,051 mm 0,0 UV-I 7 W/m 12,8 C 18,1 C 3,5 km/h (1 Bft)
17.09.2014 20:00 16,6 C 77 % 1013,1 hPa 0,0 l/m 1,6 km/h (1 Bft) O-NO 0,00 h 0,000 mm 0,0 UV-I 0 W/m 12,5 C 16,6 C 4,0 km/h (1 Bft)
17.09.2014 21:00 15,9 C 80 % 1013,1 hPa 0,0 l/m 3,1 km/h (1 Bft) O-NO 0,00 h 0,025 mm 0,0 UV-I 0 W/m 12,5 C 15,9 C 6,8 km/h (2 Bft)
17.09.2014 22:00 15,5 C 82 % 1013,2 hPa 0,0 l/m 5,1 km/h (1 Bft) O 0,00 h 0,025 mm 0,0 UV-I 0 W/m 12,5 C 15,4 C 9,4 km/h (2 Bft)
17.09.2014 23:00 15,2 C 83 % 1013,2 hPa 0,0 l/m 5,8 km/h (1 Bft) O-NO 0,00 h 0,025 mm 0,0 UV-I 0 W/m 12,3 C 14,9 C 10,1 km/h (2 Bft)
18.09.2014 00:00 14,4 C 85 % 1013,0 hPa 0,0 l/m 3,0 km/h (1 Bft) O 0,00 h 0,025 mm 0,0 UV-I 0 W/m 12,0 C 14,4 C 6,6 km/h (2 Bft)
18.09.2014 01:00 13,8 C 87 % 1013,1 hPa 0,0 l/m 3,7 km/h (1 Bft) O 0,00 h 0,025 mm 0,0 UV-I 0 W/m 11,6 C 13,8 C 7,7 km/h (2 Bft)
18.09.2014 02:00 13,3 C 88 % 1013,0 hPa 0,0 l/m 4,2 km/h (1 Bft) O 0,00 h 0,025 mm 0,0 UV-I 0 W/m 11,3 C 13,3 C 8,0 km/h (2 Bft)
18.09.2014 03:00 12,8 C 89 % 1013,1 hPa 0,0 l/m 3,1 km/h (1 Bft) O-NO 0,00 h 0,025 mm 0,0 UV-I 0 W/m 11,1 C 12,8 C 6,4 km/h (2 Bft)
18.09.2014 04:00 12,3 C 90 % 1013,0 hPa 0,0 l/m 3,7 km/h (1 Bft) O-NO 0,00 h 0,000 mm 0,0 UV-I 0 W/m 10,8 C 12,3 C 7,4 km/h (2 Bft)
18.09.2014 05:00 11,9 C 92 % 1012,8 hPa 0,0 l/m 6,4 km/h (2 Bft) O-NO 0,00 h 0,000 mm 0,0 UV-I 0 W/m 10,6 C 11,4 C 11,4 km/h (2 Bft)
18.09.2014 06:00 11,7 C 92 % 1012,9 hPa 0,0 l/m 5,5 km/h (1 Bft) O-NO 0,00 h 0,000 mm 0,0 UV-I 6 W/m 10,5 C 11,5 C 10,6 km/h (2 Bft)
18.09.2014 07:00 11,5 C 93 % 1013,2 hPa 0,0 l/m 3,2 km/h (1 Bft) O-NO 0,35 h 0,000 mm 0,0 UV-I 38 W/m 10,4 C 11,5 C 6,7 km/h (2 Bft)
18.09.2014 08:00 12,7 C 92 % 1013,4 hPa 0,0 l/m 0,7 km/h (0 Bft) O-NO 1,00 h 0,025 mm 0,7 UV-I 169 W/m 11,3 C 12,7 C 2,2 km/h (1 Bft)
18.09.2014 09:00 14,6 C 85 % 1013,7 hPa 0,0 l/m 3,2 km/h (1 Bft) O-NO 1,00 h 0,076 mm 1,3 UV-I 274 W/m 12,1 C 14,6 C 6,4 km/h (2 Bft)
18.09.2014 10:00 15,7 C 81 % 1013,7 hPa 0,0 l/m 2,9 km/h (1 Bft) SO 1,00 h 0,152 mm 2,0 UV-I 334 W/m 12,5 C 15,7 C 6,1 km/h (2 Bft)
18.09.2014 11:00 17,0 C 77 % 1013,6 hPa 0,0 l/m 4,3 km/h (1 Bft) SO 0,98 h 0,178 mm 3,0 UV-I 474 W/m 12,8 C 16,9 C 7,8 km/h (2 Bft)
18.09.2014 12:00 18,0 C 74 % 1013,5 hPa 0,0 l/m 4,8 km/h (1 Bft) SO 1,02 h 0,279 mm 3,3 UV-I 468 W/m 13,2 C 17,9 C 8,4 km/h (2 Bft)
18.09.2014 13:00 19,0 C 70 % 1013,3 hPa 0,0 l/m 4,3 km/h (1 Bft) O-SO 1,00 h 0,279 mm 3,0 UV-I 409 W/m 13,4 C 18,9 C 8,0 km/h (2 Bft)
18.09.2014 14:00 20,4 C 67 % 1013,0 hPa 0,0 l/m 4,6 km/h (1 Bft) O-NO 1,00 h 0,254 mm 3,2 UV-I 509 W/m 14,1 C 20,3 C 8,8 km/h (2 Bft)
18.09.2014 15:00 21,7 C 63 % 1012,8 hPa 0,0 l/m 5,5 km/h (1 Bft) SO 1,00 h 0,305 mm 2,7 UV-I 536 W/m 14,3 C 21,5 C 10,1 km/h (2 Bft)
18.09.2014 16:00 20,6 C 65 % 1012,8 hPa 0,0 l/m 5,4 km/h (1 Bft) SO 1,00 h 0,356 mm 1,3 UV-I 226 W/m 13,9 C 20,5 C 9,9 km/h (2 Bft)
18.09.2014 17:00 20,0 C 68 % 1013,1 hPa 0,0 l/m 3,7 km/h (1 Bft) O-SO 0,93 h 0,152 mm 0,7 UV-I 157 W/m 13,9 C 20,0 C 7,6 km/h (2 Bft)
18.09.2014 18:00 18,8 C 73 % 1013,2 hPa 0,0 l/m 1,7 km/h (1 Bft) O-SO 0,15 h 0,102 mm 0,0 UV-I 26 W/m 13,8 C 18,8 C 4,0 km/h (1 Bft)
18.09.2014 19:00 17,3 C 79 % 1013,2 hPa 0,0 l/m 0,7 km/h (0 Bft) O 0,00 h 0,025 mm 0,0 UV-I 6 W/m 13,6 C 17,3 C 2,3 km/h (1 Bft)
18.09.2014 20:00 15,3 C 87 % 1013,4 hPa 0,0 l/m 0,0 km/h (0 Bft) N 0,00 h 0,000 mm 0,0 UV-I 0 W/m 13,2 C 15,3 C 0,4 km/h (0 Bft)
18.09.2014 21:00 14,0 C 92 % 1013,6 hPa 0,0 l/m 0,1 km/h (0 Bft) O-NO 0,00 h 0,000 mm 0,0 UV-I 0 W/m 12,7 C 14,0 C 0,5 km/h (0 Bft)
18.09.2014 22:00 13,3 C 94 % 1014,0 hPa 0,0 l/m 0,0 km/h (0 Bft) N 0,00 h 0,000 mm 0,0 UV-I 0 W/m 12,3 C 13,3 C 0,5 km/h (0 Bft)
18.09.2014 23:00 12,7 C 93 % 1014,0 hPa 0,0 l/m 0,2 km/h (0 Bft) O-NO 0,00 h 0,000 mm 0,0 UV-I 0 W/m 11,6 C 12,7 C 1,0 km/h (0 Bft)
19.09.2014 00:00 12,2 C 93 % 1013,9 hPa 0,0 l/m 0,8 km/h (0 Bft) O-NO 0,00 h 0,000 mm 0,0 UV-I 0 W/m 11,0 C 12,2 C 2,4 km/h (1 Bft)
19.09.2014 01:00 11,9 C 94 % 1013,9 hPa 0,0 l/m 0,0 km/h (0 Bft) N 0,00 h 0,000 mm 0,0 UV-I 0 W/m 10,9 C 11,9 C 0,2 km/h (0 Bft)
19.09.2014 02:00 11,8 C 95 % 1013,7 hPa 0,0 l/m 0,3 km/h (0 Bft) O 0,00 h 0,000 mm 0,0 UV-I 0 W/m 11,0 C 11,8 C 1,2 km/h (1 Bft)
19.09.2014 03:00 11,7 C 95 % 1013,6 hPa 0,0 l/m 0,5 km/h (0 Bft) O 0,00 h 0,000 mm 0,0 UV-I 0 W/m 10,9 C 11,7 C 1,9 km/h (1 Bft)
19.09.2014 04:00 12,1 C 96 % 1013,4 hPa 0,0 l/m 0,5 km/h (0 Bft) N 0,00 h 0,000 mm 0,0 UV-I 0 W/m 11,5 C 12,1 C 1,5 km/h (1 Bft)
19.09.2014 05:00 12,3 C 95 % 1013,3 hPa 0,0 l/m 0,7 km/h (0 Bft) O 0,00 h 0,000 mm 0,0 UV-I 0 W/m 11,5 C 12,3 C 2,3 km/h (1 Bft)
19.09.2014 06:00 12,5 C 94 % 1013,6 hPa 0,0 l/m 2,3 km/h (1 Bft) O 0,00 h 0,000 mm 0,0 UV-I 0 W/m 11,6 C 12,5 C 4,9 km/h (1 Bft)
19.09.2014 07:00 12,7 C 93 % 1013,9 hPa 0,0 l/m 2,0 km/h (1 Bft) O 0,00 h 0,000 mm 0,0 UV-I 19 W/m 11,5 C 12,7 C 4,5 km/h (1 Bft)
19.09.2014 08:00 14,0 C 90 % 1014,3 hPa 0,0 l/m 0,9 km/h (0 Bft) N-NO 0,82 h 0,000 mm 0,6 UV-I 145 W/m 12,3 C 14,0 C 2,3 km/h (1 Bft)
19.09.2014 09:00 16,7 C 81 % 1014,4 hPa 0,0 l/m 0,9 km/h (0 Bft) O-NO 1,00 h 0,076 mm 1,4 UV-I 353 W/m 13,5 C 16,7 C 2,3 km/h (1 Bft)
19.09.2014 10:00 19,0 C 75 % 1014,3 hPa 0,0 l/m 1,4 km/h (1 Bft) S-SO 1,00 h 0,203 mm 2,2 UV-I 456 W/m 14,6 C 19,0 C 3,3 km/h (1 Bft)
19.09.2014 11:00 20,2 C 73 % 1013,9 hPa 0,0 l/m 5,8 km/h (2 Bft) S-SO 1,00 h 0,254 mm 2,8 UV-I 404 W/m 15,2 C 20,0 C 8,8 km/h (2 Bft)
19.09.2014 12:00 21,5 C 69 % 1013,5 hPa 0,0 l/m 5,5 km/h (1 Bft) S-SO 1,00 h 0,279 mm 3,6 UV-I 554 W/m 15,6 C 21,3 C 8,3 km/h (2 Bft)
19.09.2014 13:00 22,4 C 66 % 1013,2 hPa 0,0 l/m 5,7 km/h (1 Bft) S 1,00 h 0,330 mm 3,4 UV-I 453 W/m 15,6 C 22,2 C 9,2 km/h (2 Bft)
19.09.2014 14:00 23,1 C 63 % 1013,0 hPa 0,0 l/m 6,6 km/h (2 Bft) S 1,00 h 0,305 mm 3,2 UV-I 502 W/m 15,7 C 22,7 C 10,8 km/h (2 Bft)
19.09.2014 15:00 22,3 C 66 % 1012,9 hPa 0,0 l/m 6,9 km/h (2 Bft) S-SW 1,00 h 0,330 mm 1,4 UV-I 216 W/m 15,6 C 21,9 C 10,4 km/h (2 Bft)
19.09.2014 16:00 21,1 C 71 % 1012,7 hPa 0,0 l/m 5,8 km/h (2 Bft) S-SO 1,00 h 0,178 mm 1,0 UV-I 203 W/m 15,7 C 20,9 C 9,5 km/h (2 Bft)
19.09.2014 17:00 21,4 C 74 % 1012,4 hPa 0,0 l/m 6,3 km/h (2 Bft) S 1,00 h 0,152 mm 0,7 UV-I 140 W/m 16,5 C 21,2 C 9,9 km/h (2 Bft)
19.09.2014 18:00 20,8 C 77 % 1012,5 hPa 0,0 l/m 4,0 km/h (1 Bft) S 0,27 h 0,102 mm 0,0 UV-I 33 W/m 16,6 C 20,8 C 6,5 km/h (2 Bft)
19.09.2014 19:00 19,9 C 80 % 1012,8 hPa 0,0 l/m 1,0 km/h (0 Bft) W-SW 0,00 h 0,025 mm 0,0 UV-I 6 W/m 16,4 C 19,9 C 2,7 km/h (1 Bft)
19.09.2014 20:00 19,0 C 83 % 1013,2 hPa 0,0 l/m 1,9 km/h (1 Bft) W 0,00 h 0,000 mm 0,0 UV-I 0 W/m 16,0 C 19,0 C 3,8 km/h (1 Bft)
19.09.2014 21:00 17,5 C 88 % 1013,5 hPa 0,0 l/m 0,5 km/h (0 Bft) N 0,00 h 0,027 mm 0,0 UV-I 0 W/m 15,5 C 17,5 C 1,2 km/h (1 Bft)
19.09.2014 22:00 16,3 C 92 % 1013,7 hPa 0,0 l/m 0,1 km/h (0 Bft) N 0,00 h 0,000 mm 0,0 UV-I 0 W/m 15,0 C 16,3 C 0,4 km/h (0 Bft)
19.09.2014 23:00 15,7 C 92 % 1014,0 hPa 0,0 l/m 0,3 km/h (0 Bft) SO 0,00 h 0,000 mm 0,0 UV-I 0 W/m 14,5 C 15,7 C 1,5 km/h (1 Bft)
20.09.2014 00:00 15,4 C 94 % 1014,2 hPa 0,0 l/m 0,2 km/h (0 Bft) O-NO 0,00 h 0,000 mm 0,0 UV-I 0 W/m 14,4 C 15,4 C 1,0 km/h (0 Bft)
20.09.2014 01:00 15,2 C 94 % 1014,1 hPa 0,0 l/m 0,3 km/h (0 Bft) S-SO 0,00 h 0,000 mm 0,0 UV-I 0 W/m 14,2 C 15,2 C 1,2 km/h (1 Bft)
20.09.2014 02:00 15,0 C 94 % 1014,1 hPa 0,0 l/m 0,0 km/h (0 Bft) N 0,00 h 0,000 mm 0,0 UV-I 0 W/m 14,1 C 15,0 C 0,0 km/h (0 Bft)
20.09.2014 03:00 14,2 C 93 % 1014,2 hPa 0,0 l/m 0,1 km/h (0 Bft) S 0,00 h 0,000 mm 0,0 UV-I 0 W/m 13,1 C 14,2 C 0,3 km/h (0 Bft)
20.09.2014 04:00 13,5 C 94 % 1014,1 hPa 0,0 l/m 0,1 km/h (0 Bft) O-NO 0,00 h 0,000 mm 0,0 UV-I 0 W/m 12,5 C 13,5 C 0,4 km/h (0 Bft)
20.09.2014 05:00 12,9 C 94 % 1014,0 hPa 0,0 l/m 0,2 km/h (0 Bft) S-SO 0,00 h 0,000 mm 0,0 UV-I 0 W/m 12,1 C 12,9 C 0,7 km/h (0 Bft)
20.09.2014 06:00 12,8 C 95 % 1014,0 hPa 0,0 l/m 0,0 km/h (0 Bft) N 0,00 h 0,000 mm 0,0 UV-I 0 W/m 12,0 C 12,8 C 0,2 km/h (0 Bft)
20.09.2014 07:00 12,5 C 95 % 1014,0 hPa 0,0 l/m 0,0 km/h (0 Bft) N 0,00 h 0,000 mm 0,0 UV-I 21 W/m 11,8 C 12,5 C 0,1 km/h (0 Bft)
20.09.2014 08:00 13,3 C 96 % 1013,9 hPa 0,0 l/m 0,0 km/h (0 Bft) SO 0,92 h 0,000 mm 0,6 UV-I 108 W/m 12,7 C 13,3 C 0,4 km/h (0 Bft)
20.09.2014 09:00 17,1 C 89 % 1013,9 hPa 0,0 l/m 0,9 km/h (0 Bft) W 1,00 h 0,051 mm 1,4 UV-I 352 W/m 15,3 C 17,1 C 2,4 km/h (1 Bft)
20.09.2014 10:00 19,9 C 81 % 1013,8 hPa 0,0 l/m 1,3 km/h (1 Bft) W-NW 1,00 h 0,178 mm 2,4 UV-I 512 W/m 16,6 C 19,9 C 3,1 km/h (1 Bft)
20.09.2014 11:00 21,1 C 77 % 1013,5 hPa 0,0 l/m 4,7 km/h (1 Bft) W-SW 1,00 h 0,279 mm 2,9 UV-I 490 W/m 16,9 C 20,8 C 8,1 km/h (2 Bft)
20.09.2014 12:00 21,0 C 76 % 1013,2 hPa 0,0 l/m 8,3 km/h (2 Bft) S-SW 1,00 h 0,305 mm 2,2 UV-I 312 W/m 16,6 C 20,3 C 12,6 km/h (3 Bft)
20.09.2014 13:00 18,8 C 87 % 1013,3 hPa 2,2 l/m 8,1 km/h (2 Bft) W 1,00 h 0,203 mm 1,0 UV-I 136 W/m 16,6 C 17,8 C 12,9 km/h (3 Bft)
20.09.2014 14:00 18,6 C 88 % 1013,3 hPa 0,0 l/m 7,6 km/h (2 Bft) S 1,00 h 0,102 mm 1,6 UV-I 206 W/m 16,6 C 18,0 C 11,9 km/h (2 Bft)
20.09.2014 15:00 18,4 C 88 % 1013,1 hPa 0,0 l/m 4,0 km/h (1 Bft) S 1,00 h 0,127 mm 0,9 UV-I 126 W/m 16,4 C 18,4 C 6,9 km/h (2 Bft)
20.09.2014 16:00 18,2 C 90 % 1012,9 hPa 0,2 l/m 3,2 km/h (1 Bft) W 0,83 h 0,076 mm 0,7 UV-I 83 W/m 16,6 C 18,2 C 5,4 km/h (1 Bft)
20.09.2014 17:00 17,2 C 91 % 1013,2 hPa 0,2 l/m 2,2 km/h (1 Bft) W 0,10 h 0,051 mm 0,0 UV-I 26 W/m 15,7 C 17,2 C 4,2 km/h (1 Bft)
20.09.2014 18:00 16,6 C 94 % 1013,5 hPa 0,2 l/m 0,2 km/h (0 Bft) W 0,00 h 0,025 mm 0,0 UV-I 29 W/m 15,7 C 16,6 C 1,1 km/h (0 Bft)
20.09.2014 19:00 16,0 C 96 % 1013,8 hPa 0,2 l/m 1,3 km/h (1 Bft) S 0,00 h 0,025 mm 0,0 UV-I 8 W/m 15,3 C 16,0 C 2,5 km/h (1 Bft)
20.09.2014 20:00 15,3 C 96 % 1014,0 hPa 0,0 l/m 0,7 km/h (0 Bft) S 0,00 h 0,000 mm 0,0 UV-I 0 W/m 14,6 C 15,3 C 1,7 km/h (1 Bft)
20.09.2014 21:00 15,0 C 96 % 1013,7 hPa 0,0 l/m 0,3 km/h (0 Bft) O-SO 0,00 h 0,000 mm 0,0 UV-I 0 W/m 14,4 C 15,0 C 0,9 km/h (0 Bft)
20.09.2014 22:00 14,5 C 95 % 1013,9 hPa 0,0 l/m 0,7 km/h (0 Bft) S-SO 0,00 h 0,000 mm 0,0 UV-I 0 W/m 13,7 C 14,5 C 1,9 km/h (1 Bft)
20.09.2014 23:00 14,0 C 96 % 1014,4 hPa 0,0 l/m 0,6 km/h (0 Bft) S 0,00 h 0,000 mm 0,0 UV-I 0 W/m 13,4 C 14,0 C 1,8 km/h (1 Bft)
21.09.2014 00:00 13,7 C 96 % 1014,3 hPa 0,0 l/m 0,5 km/h (0 Bft) SO 0,00 h 0,000 mm 0,0 UV-I 0 W/m 13,1 C 13,7 C 1,6 km/h (1 Bft)
21.09.2014 01:00 13,5 C 96 % 1014,1 hPa 0,0 l/m 0,2 km/h (0 Bft) O-SO 0,00 h 0,000 mm 0,0 UV-I 0 W/m 12,8 C 13,5 C 1,1 km/h (1 Bft)
21.09.2014 02:00 12,9 C 96 % 1013,9 hPa 0,0 l/m 0,0 km/h (0 Bft) O-SO 0,00 h 0,000 mm 0,0 UV-I 0 W/m 12,3 C 12,9 C 0,5 km/h (0 Bft)
21.09.2014 03:00 12,3 C 96 % 1013,5 hPa 0,0 l/m 0,1 km/h (0 Bft) SO 0,00 h 0,000 mm 0,0 UV-I 0 W/m 11,7 C 12,3 C 0,8 km/h (0 Bft)
21.09.2014 04:00 13,1 C 98 % 1013,2 hPa 0,0 l/m 0,4 km/h (0 Bft) O-NO 0,00 h 0,000 mm 0,0 UV-I 0 W/m 12,8 C 13,1 C 1,1 km/h (0 Bft)
21.09.2014 05:00 13,9 C 98 % 1013,0 hPa 0,0 l/m 0,4 km/h (0 Bft) S-SO 0,00 h 0,000 mm 0,0 UV-I 0 W/m 13,6 C 13,9 C 0,9 km/h (0 Bft)
21.09.2014 06:00 14,1 C 98 % 1012,8 hPa 0,0 l/m 1,4 km/h (1 Bft) S 0,00 h 0,000 mm 0,0 UV-I 0 W/m 13,8 C 14,1 C 3,6 km/h (1 Bft)
21.09.2014 07:00 14,1 C 98 % 1012,8 hPa 0,0 l/m 2,8 km/h (1 Bft) S-SW 0,02 h 0,000 mm 0,0 UV-I 23 W/m 13,8 C 14,1 C 5,6 km/h (1 Bft)
21.09.2014 08:00 14,0 C 98 % 1012,9 hPa 0,0 l/m 4,7 km/h (1 Bft) W-SW 0,63 h 0,000 mm 0,0 UV-I 52 W/m 13,6 C 13,9 C 8,2 km/h (2 Bft)
21.09.2014 09:00 14,2 C 97 % 1013,0 hPa 0,0 l/m 2,8 km/h (1 Bft) W-SW 0,25 h 0,025 mm 0,6 UV-I 46 W/m 13,7 C 14,2 C 5,0 km/h (1 Bft)
21.09.2014 10:00 14,7 C 95 % 1012,8 hPa 0,0 l/m 3,3 km/h (1 Bft) S 0,83 h 0,025 mm 0,8 UV-I 85 W/m 13,9 C 14,7 C 5,8 km/h (2 Bft)
21.09.2014 11:00 14,7 C 95 % 1012,9 hPa 0,2 l/m 2,2 km/h (1 Bft) SW 0,80 h 0,051 mm 0,8 UV-I 75 W/m 13,9 C 14,7 C 4,8 km/h (1 Bft)
21.09.2014 12:00 15,2 C 95 % 1012,9 hPa 0,0 l/m 2,4 km/h (1 Bft) SW 0,80 h 0,051 mm 0,7 UV-I 63 W/m 14,3 C 15,2 C 4,8 km/h (1 Bft)
21.09.2014 13:00 15,7 C 93 % 1012,4 hPa 0,0 l/m 4,9 km/h (1 Bft) W-SW 0,97 h 0,025 mm 1,2 UV-I 138 W/m 14,4 C 15,6 C 8,1 km/h (2 Bft)
21.09.2014 14:00 15,7 C 93 % 1011,8 hPa 0,0 l/m 2,5 km/h (1 Bft) SW 0,98 h 0,076 mm 0,7 UV-I 86 W/m 14,5 C 15,7 C 5,2 km/h (1 Bft)
21.09.2014 15:00 15,7 C 92 % 1011,3 hPa 0,4 l/m 3,9 km/h (1 Bft) W-SW 0,63 h 0,051 mm 0,6 UV-I 66 W/m 14,3 C 15,6 C 6,6 km/h (2 Bft)
21.09.2014 16:00 15,3 C 94 % 1011,1 hPa 0,0 l/m 0,6 km/h (0 Bft) N-NW 1,00 h 0,051 mm 0,7 UV-I 135 W/m 14,2 C 15,3 C 1,9 km/h (1 Bft)
21.09.2014 17:00 15,4 C 92 % 1011,0 hPa 0,0 l/m 1,9 km/h (1 Bft) W-SW 0,83 h 0,076 mm 0,5 UV-I 71 W/m 14,1 C 15,4 C 3,8 km/h (1 Bft)
21.09.2014 18:00 15,0 C 93 % 1010,9 hPa 0,0 l/m 3,3 km/h (1 Bft) W-SW 0,08 h 0,051 mm 0,0 UV-I 31 W/m 13,9 C 15,0 C 5,6 km/h (1 Bft)
21.09.2014 19:00 14,9 C 94 % 1011,1 hPa 0,8 l/m 3,1 km/h (1 Bft) W-NW 0,00 h 0,025 mm 0,0 UV-I 0 W/m 14,0 C 14,5 C 5,4 km/h (1 Bft)
21.09.2014 20:00 13,7 C 94 % 1012,1 hPa 2,4 l/m 10,8 km/h (2 Bft) N-NW 0,00 h 0,000 mm 0,0 UV-I 0 W/m 12,6 C 11,3 C 17,2 km/h (3 Bft)
21.09.2014 21:00 12,2 C 94 % 1012,6 hPa 0,4 l/m 7,7 km/h (2 Bft) N-NW 0,00 h 0,000 mm 0,0 UV-I 0 W/m 11,2 C 10,9 C 13,0 km/h (3 Bft)
21.09.2014 22:00 11,8 C 95 % 1012,9 hPa 0,0 l/m 2,7 km/h (1 Bft) NW 0,00 h 0,000 mm 0,0 UV-I 0 W/m 11,0 C 11,7 C 5,4 km/h (1 Bft)
21.09.2014 23:00 11,6 C 95 % 1013,4 hPa 0,0 l/m 3,4 km/h (1 Bft) NW 0,00 h 0,000 mm 0,0 UV-I 0 W/m 10,8 C 11,5 C 6,3 km/h (2 Bft)
Min-Datum _ 20.09.14 16.09.14 21.09.14 - 15.09.14 - - - - - 18.09.14 21.09.14 15.09.14
_ Min-Zeit 09:27 15:23 17:58 - 00:02 - - - - - 07:10 21:28 00:04
Minimum _ 0,0 C 57 % 1010,8 hPa - 0,0 km/h (0 Bft) - - - - - 10,1 C 7,4 C 0,0 km/h (0 Bft)
Max-Datum _ 19.09.14 21.09.14 15.09.14 21.09.14 16.09.14 - 20.09.14 16.09.14 15.09.14 20.09.14 20.09.14 19.09.14 16.09.14
_ Max-Zeit 14:58 04:28 10:00 20:00 12:22 - 12:13 13:00 12:34 12:02 11:42 14:33 15:28
Maximum _ 23,6 C 98 % 1017,5 hPa 2,4 l/m 17,7 km/h
SO (3 Bft)
- 0,07 h 0,406 mm 4,8 UV-I 865 W/m 17,8 C 23,4 C 30,6 km/h
O-SO (5 Bft)
Durchschnitt _ 16,1 C 85 % 1014,3 hPa #7,2 l/m 3,2 km/h (1 Bft) SO #67:43 h #14,065 mm 1,9 UV-I 237 W/m 13,4 C 15,9 C 6,0 km/h (2 Bft)